D/T METAR WX W/DIR W/SPE G/SPE TEMP DEWP
19/03/19 03:20 EGPC 190320Z AUTO 19008KT 9999 NCD 06/04 Q1017 S (190°) 9.2mph 6°C 4°C
19/03/19 02:20 EGPC 190220Z AUTO 21005KT 9999 BKN030/// 05/03 Q1017 SSW (210°) 5.8mph 5°C 3°C
19/03/19 01:20 EGPC 190120Z AUTO 22004KT 9999 NCD 04/03 Q1017 SW (220°) 4.6mph 4°C 3°C
19/03/19 00:50 EGPC 190050Z AUTO 23006KT 9999 NCD 04/03 Q1017 SW (230°) 6.9mph 4°C 3°C
19/03/19 00:20 EGPC 190020Z AUTO 22003KT 9999 BKN034/// 05/03 Q1018 SW (220°) 3.5mph 5°C 3°C
18/03/19 23:20 EGPC 182320Z AUTO 21005KT 9999 OVC038/// 05/04 Q1018 SSW (210°) 5.8mph 5°C 4°C
18/03/19 22:50 EGPC 182250Z AUTO 21006KT 9999 SCT042/// 05/03 Q1018 SSW (210°) 6.9mph 5°C 3°C
18/03/19 21:50 EGPC 182150Z AUTO 19005KT 9999 NCD 06/04 Q1017 S (190°) 5.8mph 6°C 4°C
18/03/19 21:20 EGPC 182120Z AUTO 19008KT 9999 NCD 06/04 Q1017 S (190°) 9.2mph 6°C 4°C
18/03/19 20:50 EGPC 182050Z AUTO 18006KT 9999 NCD 06/04 Q1017 S (180°) 6.9mph 6°C 4°C
18/03/19 20:20 EGPC 182020Z 18006KT CAVOK 06/03 Q1017 S (180°) 6.9mph 6°C 3°C
18/03/19 19:50 EGPC 181950Z 16006KT CAVOK 06/03 Q1017 SSE (160°) 6.9mph 6°C 3°C
18/03/19 19:20 EGPC 181920Z 17007KT CAVOK 06/02 Q1017 S (170°) 8.1mph 6°C 2°C
18/03/19 18:50 EGPC 181850Z 17008KT CAVOK 06/02 Q1017 S (170°) 9.2mph 6°C 2°C
18/03/19 18:20 EGPC 181820Z 17007KT CAVOK 06/03 Q1017 S (170°) 8.1mph 6°C 3°C
18/03/19 17:50 EGPC 181750Z 18008KT CAVOK 06/03 Q1017 S (180°) 9.2mph 6°C 3°C
18/03/19 17:20 EGPC 181720Z 18007KT 9999 FEW048 07/03 Q1016 S (180°) 8.1mph 7°C 3°C
18/03/19 16:50 EGPC 181650Z 18008KT 9999 FEW048 07/03 Q1016 S (180°) 9.2mph 7°C 3°C
18/03/19 16:20 EGPC 181620Z 18008KT 9999 FEW048 07/03 Q1016 S (180°) 9.2mph 7°C 3°C
18/03/19 15:50 EGPC 181550Z 18008KT 9999 FEW048 07/03 Q1016 S (180°) 9.2mph 7°C 3°C
18/03/19 15:20 EGPC 181520Z 19008KT 150V210 9999 FEW048 08/03 Q1016 S (190°) 9.2mph 8°C 3°C
18/03/19 14:50 EGPC 181450Z 18009KT 9999 FEW048 08/03 Q1016 S (180°) 10.4mph 8°C 3°C
18/03/19 14:20 EGPC 181420Z 18008KT 9999 FEW048 08/03 Q1015 S (180°) 9.2mph 8°C 3°C
18/03/19 13:50 EGPC 181350Z 18008KT 9999 FEW048 07/03 Q1015 S (180°) 9.2mph 7°C 3°C
18/03/19 13:20 EGPC 181320Z 17008KT 9999 FEW045 07/02 Q1015 S (170°) 9.2mph 7°C 2°C
18/03/19 12:50 EGPC 181250Z 18008KT 9999 SCT045 08/02 Q1015 S (180°) 9.2mph 8°C 2°C
18/03/19 12:20 EGPC 181220Z 18008KT 9999 SCT024 07/03 Q1015 S (180°) 9.2mph 7°C 3°C
18/03/19 11:50 EGPC 181150Z 18008KT 9999 SCT024 07/02 Q1015 S (180°) 9.2mph 7°C 2°C
18/03/19 11:20 EGPC 181120Z 16008KT 110V230 9999 FEW024 08/01 Q1014 SSE (160°) 9.2mph 8°C 1°C
18/03/19 10:50 EGPC 181050Z 17005KT 9999 FEW024 07/01 Q1014 S (170°) 5.8mph 7°C 1°C
18/03/19 10:20 EGPC 181020Z 17005KT 9999 FEW024 SCT043 07/00 Q1014 S (170°) 5.8mph 7°C 0°C
18/03/19 09:50 EGPC 180950Z VRB01KT 9999 FEW020 SCT046 07/M00 Q1014 N (0°) 1.2mph 7°C 0°C
18/03/19 09:20 EGPC 180920Z 24001KT 9999 FEW046 06/00 Q1013 WSW (240°) 1.2mph 6°C 0°C
18/03/19 08:50 EGPC 180850Z 25003KT 9999 FEW047 04/M00 Q1013 WSW (250°) 3.5mph 4°C 0°C
18/03/19 08:20 EGPC 180820Z AUTO 25003KT 9999 NCD 03/M01 Q1013 WSW (250°) 3.5mph 3°C -1°C
18/03/19 07:50 EGPC 180750Z 27004KT CAVOK 02/M01 Q1013 W (270°) 4.6mph 2°C -1°C
18/03/19 07:20 EGPC 180720Z 25004KT CAVOK 01/M02 Q1012 WSW (250°) 4.6mph 1°C -2°C
18/03/19 06:50 EGPC 180650Z 28004KT CAVOK 01/M02 Q1012 W (280°) 4.6mph 1°C -2°C
18/03/19 06:20 EGPC 180620Z AUTO 26003KT 9999 NCD 02/M02 Q1012 W (260°) 3.5mph 2°C -2°C
18/03/19 05:50 EGPC 180550Z AUTO 26004KT 9999 NCD 02/M02 Q1012 W (260°) 4.6mph 2°C -2°C
18/03/19 05:20 EGPC 180520Z AUTO 27004KT 9999 OVC047/// 02/M01 Q1011 W (270°) 4.6mph 2°C -1°C
18/03/19 04:50 EGPC 180450Z AUTO 27004KT 9999 OVC046/// 02/M01 Q1011 W (270°) 4.6mph 2°C -1°C
18/03/19 04:20 EGPC 180420Z AUTO 26005KT 9999 NCD 02/M01 Q1011 W (260°) 5.8mph 2°C -1°C
18/03/19 03:50 EGPC 180350Z AUTO 25005KT 9999 NCD 02/M02 Q1011 WSW (250°) 5.8mph 2°C -2°C
18/03/19 03:20 EGPC 180320Z AUTO 26005KT 9999 FEW049/// 02/M03 Q1011 W (260°) 5.8mph 2°C -3°C
18/03/19 02:50 EGPC 180250Z AUTO 30007KT 9999 BKN046/// 03/M02 Q1011 WNW (300°) 8.1mph 3°C -2°C
18/03/19 02:20 EGPC 180220Z AUTO 29009KT 9999 OVC047/// 04/M01 Q1010 WNW (290°) 10.4mph 4°C -1°C
18/03/19 01:50 EGPC 180150Z AUTO 31007KT 9999 OVC044/// 03/M01 Q1010 NW (310°) 8.1mph 3°C -1°C
18/03/19 01:20 EGPC 180120Z AUTO 31009KT 9999 OVC046/// 04/M01 Q1010 NW (310°) 10.4mph 4°C -1°C
18/03/19 00:50 EGPC 180050Z AUTO 32009KT 9999 FEW039/// OVC047/// 04/M00 Q1010 NW (320°) 10.4mph 4°C 0°C
18/03/19 00:20 EGPC 180020Z AUTO 31008KT 9999 OVC044/// 04/M01 Q1010 NW (310°) 9.2mph 4°C -1°C
17/03/19 23:20 EGPC 172320Z AUTO 33010KT 9999 BKN045/// 04/M01 Q1009 NNW (330°) 11.5mph 4°C -1°C
17/03/19 22:50 EGPC 172250Z AUTO 33010KT 9999 OVC040/// 04/M00 Q1008 NNW (330°) 11.5mph 4°C 0°C
17/03/19 22:20 EGPC 172220Z AUTO 33010KT 9999 BKN049/// 04/M01 Q1008 NNW (330°) 11.5mph 4°C -1°C
17/03/19 21:20 EGPC 172120Z AUTO 33010KT 9999 OVC049/// 04/M00 Q1008 NNW (330°) 11.5mph 4°C 0°C
17/03/19 20:50 EGPC 172050Z AUTO 34019KT 9999 -RA FEW011/// BKN044/// 05/M00 Q1007 -RA NNW (340°) 21.9mph 5°C 0°C
17/03/19 20:20 EGPC 172020Z AUTO 33013KT 9999 OVC045/// 04/M00 Q1007 NNW (330°) 15.0mph 4°C 0°C
17/03/19 19:50 EGPC 171950Z AUTO 34015KT 9999 NCD 05/M00 Q1006 NNW (340°) 17.3mph 5°C 0°C
17/03/19 19:20 EGPC 171920Z AUTO 36017KT 9999 NCD 04/01 Q1006 N (360°) 19.6mph 4°C 1°C
17/03/19 18:50 EGPC 171850Z AUTO 34018KT 9999 SCT040/// OVC048/// 04/00 Q1005 NNW (340°) 20.7mph 4°C 0°C
17/03/19 18:20 EGPC 171820Z AUTO 35016KT 9999 NCD 04/M01 Q1004 N (350°) 18.4mph 4°C -1°C
17/03/19 17:50 EGPC 171750Z AUTO 34016KT 9999 BKN043/// 04/01 Q1004 NNW (340°) 18.4mph 4°C 1°C
17/03/19 17:20 EGPC 171720Z AUTO 35023KT 9000 -RA FEW003/// SCT029/// BKN043/// 04/01 Q1003 RERA -RA N (350°) 26.5mph 4°C 1°C
17/03/19 16:50 EGPC 171650Z AUTO 34021G33KT 9999 SCT036/// BKN044/// 04/01 Q1002 NNW (340°) 24.2mph 38.0mph 4°C 1°C
17/03/19 16:20 EGPC 171620Z 34024KT 9999 -SHRA FEW020CB 07/00 Q1001 -SHRA NNW (340°) 27.6mph 7°C 0°C
17/03/19 15:20 EGPC 171520Z 33017KT 9999 VCSH FEW010 FEW020CB 06/02 Q1000 VCSH NNW (330°) 19.6mph 6°C 2°C
17/03/19 14:50 EGPC 171450Z 34026KT 9999 VCSH FEW016 FEW024CB 05/01 Q1000 VCSH NNW (340°) 29.9mph 5°C 1°C
17/03/19 14:20 EGPC 171420Z 35024KT 9999 VCSH SCT023CB 06/02 Q0999 VCSH N (350°) 27.6mph 6°C 2°C
17/03/19 13:50 EGPC 171350Z 35024KT 9999 VCSH FEW020 SCT032 06/01 Q0998 VCSH N (350°) 27.6mph 6°C 1°C
17/03/19 13:20 EGPC 171320Z AUTO 35023KT 9999 FEW033/// 07/02 Q0997 N (350°) 26.5mph 7°C 2°C
17/03/19 12:50 EGPC 171250Z AUTO 35026KT 9999 SCT029/// 07/02 Q0997 N (350°) 29.9mph 7°C 2°C
17/03/19 12:20 EGPC 171220Z AUTO 35024KT 9999 FEW022/// 06/02 Q0996 N (350°) 27.6mph 6°C 2°C
17/03/19 11:50 EGPC 171150Z AUTO 35024KT 9999 FEW024/// SCT039/// 05/02 Q0995 N (350°) 27.6mph 5°C 2°C
17/03/19 11:20 EGPC 171120Z AUTO 35024KT 9999 FEW026/// SCT048/// 07/03 Q0994 N (350°) 27.6mph 7°C 3°C
17/03/19 10:50 EGPC 171050Z AUTO 35021KT 9999 FEW005/// SCT040/// 06/03 Q0993 RERA N (350°) 24.2mph 6°C 3°C
17/03/19 10:20 EGPC 171020Z AUTO 34022KT 9999 FEW021/// 06/03 Q0993 NNW (340°) 25.3mph 6°C 3°C
17/03/19 09:50 EGPC 170950Z AUTO 36024KT 9999 FEW015/// SCT022/// BKN042/// 05/03 Q0992 N (360°) 27.6mph 5°C 3°C
17/03/19 08:50 EGPC 170850Z AUTO 34010KT 9999 FEW034/// SCT045/// 05/04 Q0990 NNW (340°) 11.5mph 5°C 4°C
17/03/19 08:20 EGPC 170820Z AUTO 36015KT 9999 -RA SCT005/// BKN011/// BKN021/// 04/03 Q0989 -RA N (360°) 17.3mph 4°C 3°C
17/03/19 07:50 EGPC 170750Z AUTO 33010KT 9999 SCT025/// 04/03 Q0988 NNW (330°) 11.5mph 4°C 3°C
17/03/19 07:20 EGPC 170720Z AUTO 33012KT 9999 SCT015/// BKN021/// BKN027/// 04/03 Q0988 NNW (330°) 13.8mph 4°C 3°C
17/03/19 06:50 EGPC 170650Z AUTO 30011KT 9999 SCT016/// BKN020/// 03/02 Q0987 WNW (300°) 12.7mph 3°C 2°C
17/03/19 06:20 EGPC 170620Z AUTO 30011KT 9999 FEW014/// 03/02 Q0986 WNW (300°) 12.7mph 3°C 2°C
17/03/19 05:20 EGPC 170520Z AUTO 29012KT 9999 BKN019/// BKN024/// 03/02 Q0985 WNW (290°) 13.8mph 3°C 2°C
17/03/19 04:50 EGPC 170450Z AUTO 30015KT 9999 FEW004/// BKN013/// BKN019/// 03/02 Q0985 WNW (300°) 17.3mph 3°C 2°C
17/03/19 04:20 EGPC 170420Z AUTO 30015KT 9999 FEW042/// 03/01 Q0985 RERA WNW (300°) 17.3mph 3°C 1°C
17/03/19 03:20 EGPC 170320Z AUTO 30013KT 9999 FEW027/// 02/01 Q0984 WNW (300°) 15.0mph 2°C 1°C
17/03/19 02:50 EGPC 170250Z AUTO 31014KT 9999 FEW046/// 02/01 Q0984 NW (310°) 16.1mph 2°C 1°C
17/03/19 02:20 EGPC 170220Z AUTO 30015KT 9999 FEW004/// BKN009/// BKN014/// 02/02 Q0984 RERA WNW (300°) 17.3mph 2°C 2°C
17/03/19 01:20 EGPC 170120Z AUTO 31011KT 9999 -RA SCT004/// BKN008/// BKN018/// 02/01 Q0984 RERA -RA NW (310°) 12.7mph 2°C 1°C
17/03/19 00:50 EGPC 170050Z AUTO 30016KT 9999 SCT017/// BKN031/// 02/01 Q0984 WNW (300°) 18.4mph 2°C 1°C
17/03/19 00:20 EGPC 170020Z AUTO 29015KT 9999 SCT034/// 02/01 Q0984 WNW (290°) 17.3mph 2°C 1°C
16/03/19 23:50 EGPC 162350Z AUTO 29013KT 9999 SCT022/// SCT029/// BKN035/// 01/01 Q0983 WNW (290°) 15.0mph 1°C 1°C
16/03/19 23:20 EGPC 162320Z AUTO 30010KT 9999 SCT013/// SCT028/// BKN044/// 01/01 Q0983 WNW (300°) 11.5mph 1°C 1°C
16/03/19 22:50 EGPC 162250Z AUTO 31012KT 9999 SCT012/// BKN028/// 01/01 Q0984 NW (310°) 13.8mph 1°C 1°C
16/03/19 22:20 EGPC 162220Z AUTO 30009KT 9999 BKN010/// BKN046/// 01/01 Q0984 WNW (300°) 10.4mph 1°C 1°C
16/03/19 21:50 EGPC 162150Z AUTO 30009KT 9999 BKN008/// BKN015/// 01/00 Q0984 WNW (300°) 10.4mph 1°C 0°C
16/03/19 21:20 EGPC 162120Z AUTO 30007KT 9999 -RA SCT010/// BKN022/// 00/00 Q0984 -RA WNW (300°) 8.1mph 0°C 0°C
16/03/19 20:50 EGPC 162050Z AUTO 32007KT 3300 -SN BKN002/// OVC018/// 00/00 Q0984 -SN NW (320°) 8.1mph 0°C 0°C
16/03/19 20:20 EGPC 162020Z AUTO 31007KT 7000 -SN BKN005/// BKN023/// OVC031/// 00/00 Q0984 -SN NW (310°) 8.1mph 0°C 0°C
16/03/19 19:50 EGPC 161950Z AUTO 32007KT 9999 -RA BKN005/// BKN009/// BKN017/// 01/00 Q0984 -RA NW (320°) 8.1mph 1°C 0°C
16/03/19 19:20 EGPC 161920Z AUTO 32008KT 3800 -SN BKN005/// BKN016/// OVC025/// 00/M00 Q0984 -SN NW (320°) 9.2mph 0°C 0°C
16/03/19 18:50 EGPC 161850Z AUTO 30008KT 9999 -RA BKN008/// BKN032/// 00/00 Q0984 -RA WNW (300°) 9.2mph 0°C 0°C
16/03/19 18:20 EGPC 161820Z AUTO 32006KT 9999 -RA SCT004/// BKN014/// BKN024/// 00/00 Q0984 -RA NW (320°) 6.9mph 0°C 0°C
16/03/19 17:50 EGPC 161750Z AUTO 34007KT 4600 -SN OVC003/// 01/00 Q0984 -SN NNW (340°) 8.1mph 1°C 0°C
16/03/19 17:20 EGPC 161720Z AUTO 01008KT 7000 -RA BKN005/// OVC025/// 02/01 Q0984 -RA N (10°) 9.2mph 2°C 1°C
16/03/19 16:50 EGPC 161650Z AUTO 33006KT 9999 -RA BKN007/// BKN043/// OVC049/// 03/01 Q0984 -RA NNW (330°) 6.9mph 3°C 1°C
16/03/19 16:20 EGPC 161620Z AUTO 34003KT 9999 -RA FEW009/// SCT044/// 03/01 Q0985 -RA NNW (340°) 3.5mph 3°C 1°C
16/03/19 15:50 EGPC 161550Z AUTO VRB02KT 9999 -RA FEW045/// 03/00 Q0985 -RA N (0°) 2.3mph 3°C 0°C
16/03/19 15:20 EGPC 161520Z AUTO 35004KT 9999 SCT036/// SCT044/// 04/00 Q0985 N (350°) 4.6mph 4°C 0°C
16/03/19 14:50 EGPC 161450Z AUTO VRB03KT 9999 -RA FEW047/// 04/M00 Q0985 -RA N (0°) 3.5mph 4°C 0°C
16/03/19 14:20 EGPC 161420Z AUTO 32003KT 9999 SCT036/// 04/00 Q0986 NW (320°) 3.5mph 4°C 0°C
16/03/19 13:50 EGPC 161350Z AUTO VRB03KT 9999 BKN030/// 04/01 Q0986 N (0°) 3.5mph 4°C 1°C
16/03/19 13:20 EGPC 161320Z AUTO 21004KT 180V260 9999 BKN011/// BKN044/// 04/01 Q0987 SSW (210°) 4.6mph 4°C 1°C
16/03/19 12:50 EGPC 161250Z AUTO 22006KT 170V250 9999 FEW014/// BKN036/// 04/01 Q0987 SW (220°) 6.9mph 4°C 1°C
16/03/19 12:20 EGPC 161220Z AUTO 22007KT 9999 BKN040/// 05/01 Q0988 SW (220°) 8.1mph 5°C 1°C
16/03/19 11:50 EGPC 161150Z AUTO 22007KT 190V250 9999 FEW038/// SCT049/// 05/01 Q0988 SW (220°) 8.1mph 5°C 1°C
16/03/19 11:20 EGPC 161120Z AUTO 22007KT 180V260 9999 NCD 05/02 Q0989 SW (220°) 8.1mph 5°C 2°C
16/03/19 10:50 EGPC 161050Z AUTO 21007KT 9999 NCD 05/01 Q0989 SSW (210°) 8.1mph 5°C 1°C
16/03/19 10:20 EGPC 161020Z AUTO 23005KT 9999 NCD 05/01 Q0989 SW (230°) 5.8mph 5°C 1°C
16/03/19 09:50 EGPC 160950Z AUTO 23007KT 9999 NCD 05/02 Q0990 SW (230°) 8.1mph 5°C 2°C
16/03/19 09:20 EGPC 160920Z AUTO 22007KT 9999 NCD 04/02 Q0990 SW (220°) 8.1mph 4°C 2°C
16/03/19 08:50 EGPC 160850Z AUTO 22008KT 9999 NCD 04/01 Q0990 SW (220°) 9.2mph 4°C 1°C
16/03/19 08:20 EGPC 160820Z AUTO 22005KT 9999 NCD 03/01 Q0991 SW (220°) 5.8mph 3°C 1°C
16/03/19 07:50 EGPC 160750Z AUTO 22006KT 9999 NCD 03/01 Q0991 SW (220°) 6.9mph 3°C 1°C
16/03/19 07:20 EGPC 160720Z AUTO 22007KT 9999 NCD 03/01 Q0991 SW (220°) 8.1mph 3°C 1°C
16/03/19 06:50 EGPC 160650Z AUTO 22008KT 9999 NCD 03/01 Q0992 SW (220°) 9.2mph 3°C 1°C
16/03/19 06:20 EGPC 160620Z AUTO 21006KT 9999 NCD 03/00 Q0992 SSW (210°) 6.9mph 3°C 0°C
16/03/19 05:50 EGPC 160550Z AUTO 19003KT 9999 NCD 02/00 Q0992 S (190°) 3.5mph 2°C 0°C
16/03/19 05:20 EGPC 160520Z AUTO VRB03KT 9999 NCD 03/M00 Q0992 N (0°) 3.5mph 3°C 0°C
16/03/19 04:50 EGPC 160450Z AUTO 25006KT 9999 NCD 03/M00 Q0993 WSW (250°) 6.9mph 3°C 0°C
16/03/19 04:20 EGPC 160420Z AUTO 25004KT 190V290 9999 SCT031/// 03/M00 Q0993 WSW (250°) 4.6mph 3°C 0°C
16/03/19 03:50 EGPC 160350Z AUTO 26008KT 9999 NCD 03/M00 Q0993 W (260°) 9.2mph 3°C 0°C
16/03/19 03:20 EGPC 160320Z AUTO 25005KT 9999 NCD 02/00 Q0993 WSW (250°) 5.8mph 2°C 0°C
16/03/19 02:50 EGPC 160250Z AUTO 24004KT 200V260 9999 NCD 02/00 Q0993 WSW (240°) 4.6mph 2°C 0°C
16/03/19 02:20 EGPC 160220Z AUTO 27006KT 9999 NCD 02/00 Q0994 W (270°) 6.9mph 2°C 0°C
16/03/19 01:50 EGPC 160150Z AUTO 28012KT 9999 NCD 03/00 Q0994 W (280°) 13.8mph 3°C 0°C
16/03/19 00:50 EGPC 160050Z AUTO 27008KT 9999 NCD 03/01 Q0994 W (270°) 9.2mph 3°C 1°C
16/03/19 00:20 EGPC 160020Z AUTO 28013KT 9999 NCD 03/01 Q0994 W (280°) 15.0mph 3°C 1°C
15/03/19 23:20 EGPC 152320Z AUTO 26011KT 9999 NCD 03/01 Q0994 W (260°) 12.7mph 3°C 1°C
15/03/19 22:50 EGPC 152250Z AUTO 27015KT 9999 NCD 03/01 Q0994 W (270°) 17.3mph 3°C 1°C
15/03/19 22:20 EGPC 152220Z AUTO 27014KT 9999 NCD 03/01 Q0994 W (270°) 16.1mph 3°C 1°C
15/03/19 21:20 EGPC 152120Z AUTO 27013KT 9999 NCD 03/01 Q0993 W (270°) 15.0mph 3°C 1°C
15/03/19 20:50 EGPC 152050Z AUTO 28017KT 9999 NCD 03/01 Q0993 W (280°) 19.6mph 3°C 1°C